Terminal Aerodrome Forecast
Issued by NWS

Home | Current Version | Previous Version | Text Only | Print | Product List | Glossary On
Versions: 1 2 3 4 5 6 7 8 9 10 11 12 13 14 15
000
FTAK31 PANC 231139
TAFAVD
TAF
PAVD 231139Z 2312/2412 VRB06KT 1/4SM FZFG BKN002
      TEMPO 2312/2315 5SM BR SCT002
     FM231500 06015G25KT P6SM FEW025
     FM241000 VRB03KT 5SM -SN BKN010
      AMD LTD TO CLD VIS AND WIND=

USA.gov is the U.S. government's official web portal to all federal, state and local government web resources and services.